createdAt,value
2023-05-10T00:02:14.256Z,15.93
2023-05-10T00:04:42.576Z,15.84
2023-05-10T00:07:11.345Z,15.87
2023-05-10T00:09:39.802Z,15.89
2023-05-10T00:12:08.194Z,15.96
2023-05-10T00:14:36.557Z,15.90
2023-05-10T00:17:06.721Z,15.86
2023-05-10T00:19:35.327Z,15.76
2023-05-10T00:22:11.611Z,15.82
2023-05-10T00:24:39.972Z,15.84
2023-05-10T00:27:08.523Z,15.67
2023-05-10T00:29:37.327Z,15.68
2023-05-10T00:32:07.690Z,15.72
2023-05-10T00:34:36.074Z,15.67
2023-05-10T00:37:07.253Z,15.61
2023-05-10T00:39:35.467Z,15.67
2023-05-10T00:42:03.828Z,15.80
2023-05-10T00:44:37.400Z,15.68
2023-05-10T00:47:07.858Z,15.70
2023-05-10T00:49:37.182Z,15.81
2023-05-10T00:52:06.314Z,15.67
2023-05-10T00:54:34.904Z,15.61
2023-05-10T00:57:03.136Z,15.55
2023-05-10T00:59:34.711Z,15.55
2023-05-10T01:02:03.972Z,15.53
2023-05-10T01:04:34.114Z,15.70
2023-05-10T01:07:02.553Z,15.66
2023-05-10T01:09:31.025Z,15.64
2023-05-10T01:12:08.737Z,15.69
2023-05-10T01:14:39.577Z,15.54
2023-05-10T01:17:08.524Z,15.53
2023-05-10T01:19:39.587Z,15.54
2023-05-10T01:22:22.187Z,15.32
2023-05-10T01:25:30.595Z,15.40
2023-05-10T01:28:18.028Z,15.16
2023-05-10T01:31:20.822Z,15.21
2023-05-10T01:33:57.121Z,15.26
2023-05-10T01:36:33.373Z,15.18
2023-05-10T01:39:06.062Z,15.30
2023-05-10T01:41:43.436Z,15.27
2023-05-10T01:44:20.884Z,15.25
2023-05-10T01:46:55.779Z,15.15
2023-05-10T01:49:29.867Z,15.11
2023-05-10T01:52:11.879Z,15.10
2023-05-10T01:54:43.932Z,15.21
2023-05-10T01:57:17.819Z,15.11
2023-05-10T01:59:53.175Z,15.05
2023-05-10T02:02:23.610Z,14.98
2023-05-10T02:04:55.693Z,15.03
2023-05-10T02:07:25.580Z,14.95
2023-05-10T02:09:54.714Z,14.95
2023-05-10T02:12:25.380Z,15.05
2023-05-10T02:14:56.002Z,15.09
2023-05-10T02:17:27.078Z,15.10
2023-05-10T02:19:58.741Z,15.00
2023-05-10T02:22:29.132Z,14.96
2023-05-10T02:24:59.905Z,14.89
2023-05-10T02:27:29.956Z,14.87
2023-05-10T02:30:00.443Z,15.02
2023-05-10T02:32:29.972Z,15.01
2023-05-10T02:35:02.481Z,14.97
2023-05-10T02:37:31.413Z,14.95
2023-05-10T02:40:00.891Z,14.84
2023-05-10T02:42:31.027Z,14.86
2023-05-10T02:45:04.520Z,14.77
2023-05-10T02:47:32.811Z,14.82
2023-05-10T02:50:08.460Z,14.92
2023-05-10T02:52:45.716Z,14.94
2023-05-10T02:55:17.147Z,14.91
2023-05-10T02:58:02.367Z,14.94
2023-05-10T03:00:30.928Z,14.94
2023-05-10T03:02:59.849Z,14.87
2023-05-10T03:05:29.972Z,14.88
2023-05-10T03:07:58.606Z,14.93
2023-05-10T03:10:32.097Z,14.87
2023-05-10T03:13:13.594Z,14.99
2023-05-10T03:15:50.025Z,15.03
2023-05-10T03:18:23.792Z,14.78
2023-05-10T03:21:00.076Z,14.94
2023-05-10T03:23:32.272Z,14.94
2023-05-10T03:26:02.096Z,14.89
2023-05-10T03:28:34.176Z,14.76
2023-05-10T03:31:03.005Z,14.67
2023-05-10T03:33:32.042Z,14.88
2023-05-10T03:36:03.431Z,14.77
2023-05-10T03:38:34.763Z,15.00
2023-05-10T03:41:02.951Z,15.09
2023-05-10T03:43:31.085Z,15.03
2023-05-10T03:45:59.548Z,14.93
2023-05-10T03:48:27.833Z,14.93
2023-05-10T03:50:55.979Z,14.90
2023-05-10T03:53:28.987Z,14.81
2023-05-10T03:55:57.409Z,14.72
2023-05-10T03:58:25.605Z,14.98
2023-05-10T04:00:53.962Z,15.03
2023-05-10T04:03:23.021Z,15.00
2023-05-10T04:05:51.526Z,15.01
2023-05-10T04:08:22.832Z,14.96
2023-05-10T04:10:52.609Z,15.12
2023-05-10T04:13:21.120Z,15.03
2023-05-10T04:15:49.644Z,15.02
2023-05-10T04:18:18.657Z,15.05
2023-05-10T04:20:46.905Z,15.07
2023-05-10T04:23:16.353Z,15.03
2023-05-10T04:25:44.668Z,15.10
2023-05-10T04:28:14.272Z,15.11
2023-05-10T04:30:42.837Z,15.15
2023-05-10T04:33:11.341Z,15.27
2023-05-10T04:35:41.164Z,15.34
2023-05-10T04:38:09.533Z,15.38
2023-05-10T04:40:38.040Z,15.45
2023-05-10T04:43:06.268Z,15.56
2023-05-10T04:45:35.990Z,15.57
2023-05-10T04:48:04.255Z,15.19
2023-05-10T04:50:33.036Z,15.44
2023-05-10T04:53:03.152Z,15.35
2023-05-10T04:55:31.718Z,15.35
2023-05-10T04:58:00.665Z,15.60
2023-05-10T05:00:29.582Z,15.53
2023-05-10T05:02:59.863Z,15.47
2023-05-10T05:05:28.493Z,15.63
2023-05-10T05:07:56.813Z,15.51
2023-05-10T05:10:25.186Z,15.51
2023-05-10T05:12:56.640Z,15.74
2023-05-10T05:15:24.852Z,15.86
2023-05-10T05:17:53.215Z,15.92
2023-05-10T05:20:23.511Z,15.82
2023-05-10T05:22:52.098Z,15.84
2023-05-10T05:25:20.396Z,15.96
2023-05-10T05:27:48.488Z,16.10
2023-05-10T05:30:17.155Z,15.99
2023-05-10T05:32:45.869Z,16.11
2023-05-10T05:35:14.375Z,16.19
2023-05-10T05:37:44.291Z,16.30
2023-05-10T05:40:16.161Z,16.35
2023-05-10T05:42:46.858Z,16.48
2023-05-10T05:45:15.915Z,16.44
2023-05-10T05:47:44.748Z,16.24
2023-05-10T05:50:14.020Z,16.46
2023-05-10T05:52:43.929Z,16.53
2023-05-10T05:55:12.308Z,16.68
2023-05-10T05:57:40.784Z,16.78
2023-05-10T06:00:10.183Z,16.72
2023-05-10T06:02:38.469Z,16.64
2023-05-10T06:05:08.226Z,16.82
2023-05-10T06:07:36.791Z,16.88
2023-05-10T06:10:07.871Z,16.89
2023-05-10T06:12:38.736Z,16.94
2023-05-10T06:15:10.805Z,16.95
2023-05-10T06:17:39.982Z,17.00
2023-05-10T06:20:09.887Z,16.60
2023-05-10T06:22:38.500Z,17.00
2023-05-10T06:25:09.614Z,16.96
2023-05-10T06:27:39.931Z,17.28
2023-05-10T06:30:13.265Z,17.35
2023-05-10T06:32:42.191Z,17.32
2023-05-10T06:35:11.330Z,17.42
2023-05-10T06:37:39.682Z,17.46
2023-05-10T06:40:11.250Z,17.44
2023-05-10T06:42:42.384Z,17.59
2023-05-10T06:45:11.832Z,17.61
2023-05-10T06:47:40.286Z,17.62
2023-05-10T06:50:09.912Z,17.92
2023-05-10T06:52:39.368Z,18.01
2023-05-10T06:55:11.003Z,18.03
2023-05-10T06:57:39.367Z,17.99
2023-05-10T07:00:10.831Z,18.00
2023-05-10T07:02:39.504Z,18.24
2023-05-10T07:05:10.584Z,18.33
2023-05-10T07:07:38.698Z,18.27
2023-05-10T07:10:08.583Z,18.24
2023-05-10T07:12:42.253Z,18.32
2023-05-10T07:15:11.837Z,18.33
2023-05-10T07:17:41.851Z,18.60
2023-05-10T07:20:15.601Z,18.67
2023-05-10T07:22:43.805Z,18.72
2023-05-10T07:25:12.835Z,18.73
2023-05-10T07:27:43.165Z,18.70
2023-05-10T07:30:15.078Z,18.78
2023-05-10T07:32:43.948Z,18.89
2023-05-10T07:35:15.310Z,18.98
2023-05-10T07:37:43.641Z,19.05
2023-05-10T07:40:14.907Z,19.18
2023-05-10T07:42:47.417Z,19.35
2023-05-10T07:45:16.013Z,19.35
2023-05-10T07:47:44.415Z,19.40
2023-05-10T07:50:13.590Z,20.06
2023-05-10T07:52:42.237Z,20.54
2023-05-10T07:55:11.786Z,21.05
2023-05-10T07:57:41.352Z,21.19
2023-05-10T08:00:15.508Z,21.44
2023-05-10T08:02:44.545Z,21.79
2023-05-10T08:05:16.084Z,22.04
2023-05-10T08:07:44.902Z,22.20
2023-05-10T08:10:13.399Z,22.51
2023-05-10T08:12:42.281Z,22.91
2023-05-10T08:15:13.104Z,23.35
2023-05-10T08:17:41.262Z,23.27
2023-05-10T08:20:10.332Z,23.51
2023-05-10T08:22:38.580Z,23.32
2023-05-10T08:25:07.771Z,23.58
2023-05-10T08:27:36.028Z,23.61
2023-05-10T08:30:06.682Z,23.41
2023-05-10T08:32:39.363Z,22.98
2023-05-10T08:35:08.071Z,22.78
2023-05-10T08:37:38.917Z,22.97
2023-05-10T08:40:08.544Z,22.94
2023-05-10T08:42:41.665Z,22.96
2023-05-10T08:45:11.859Z,23.33
2023-05-10T08:47:41.970Z,23.65
2023-05-10T08:50:11.908Z,23.60
2023-05-10T08:52:42.660Z,23.55
2023-05-10T08:55:11.126Z,23.38
2023-05-10T08:57:39.526Z,23.25
2023-05-10T09:00:12.452Z,23.35
2023-05-10T09:02:42.851Z,23.36
2023-05-10T09:05:11.749Z,23.18
2023-05-10T09:07:40.771Z,23.37
2023-05-10T09:10:11.112Z,23.45
2023-05-10T09:12:39.718Z,23.41
2023-05-10T09:15:09.823Z,23.55
2023-05-10T09:17:39.569Z,23.56
2023-05-10T09:20:10.180Z,23.49
2023-05-10T09:22:38.958Z,23.72
2023-05-10T09:25:12.029Z,23.71
2023-05-10T09:27:41.708Z,23.87
2023-05-10T09:30:11.684Z,23.58
2023-05-10T09:32:41.545Z,23.77
2023-05-10T09:35:12.720Z,23.82
2023-05-10T09:37:43.142Z,23.88
2023-05-10T09:40:15.362Z,23.88
2023-05-10T09:42:45.066Z,23.80
2023-05-10T09:45:13.464Z,23.68
2023-05-10T09:47:42.009Z,23.91
2023-05-10T09:50:12.554Z,23.88
2023-05-10T09:52:50.229Z,23.76
2023-05-10T09:55:19.062Z,23.79
2023-05-10T09:57:48.488Z,23.86
2023-05-10T10:00:21.311Z,23.93
2023-05-10T10:02:56.364Z,23.98
2023-05-10T10:05:32.760Z,23.85
2023-05-10T10:08:02.136Z,23.86
2023-05-10T10:10:31.075Z,23.80
2023-05-10T10:12:59.840Z,23.96
2023-05-10T10:15:28.882Z,23.94
2023-05-10T10:17:57.157Z,24.15
2023-05-10T10:20:26.299Z,24.07
2023-05-10T10:22:56.630Z,24.16
2023-05-10T10:25:25.390Z,24.13
2023-05-10T10:28:08.344Z,24.12
2023-05-10T10:30:43.549Z,24.19
2023-05-10T10:33:53.894Z,24.25
2023-05-10T10:36:28.142Z,24.22
2023-05-10T10:39:05.768Z,24.17
2023-05-10T10:41:36.082Z,24.21
2023-05-10T10:44:36.035Z,24.26
2023-05-10T10:47:09.505Z,24.24
2023-05-10T10:49:50.557Z,24.24
2023-05-10T10:52:25.072Z,24.20
2023-05-10T10:55:06.548Z,24.22
2023-05-10T10:57:36.228Z,24.13
2023-05-10T11:00:38.256Z,24.11
2023-05-10T11:03:08.533Z,24.15
2023-05-10T11:05:47.474Z,24.12
2023-05-10T11:08:18.397Z,24.04
2023-05-10T11:11:09.499Z,24.27
2023-05-10T11:13:41.304Z,24.40
2023-05-10T11:16:18.479Z,24.39
2023-05-10T11:19:06.120Z,24.52
2023-05-10T11:21:36.228Z,24.46
2023-05-10T11:24:07.240Z,24.35
2023-05-10T11:26:38.425Z,24.39
2023-05-10T11:29:06.859Z,24.40
2023-05-10T11:31:35.741Z,24.42
2023-05-10T11:34:04.328Z,24.35
2023-05-10T11:36:35.855Z,24.53
2023-05-10T11:39:08.467Z,24.49
2023-05-10T11:41:38.103Z,24.63
2023-05-10T11:44:07.081Z,24.75
2023-05-10T11:46:35.485Z,24.53
2023-05-10T11:49:05.756Z,24.56
2023-05-10T11:51:40.495Z,24.72
2023-05-10T11:54:10.562Z,24.44
2023-05-10T11:56:40.688Z,24.41
2023-05-10T11:59:09.486Z,24.71
2023-05-10T12:01:38.374Z,24.58
2023-05-10T12:04:08.048Z,24.56
2023-05-10T12:06:43.971Z,24.63
2023-05-10T12:09:12.406Z,24.71
2023-05-10T12:11:44.166Z,24.85
2023-05-10T12:14:13.256Z,24.70
2023-05-10T12:16:41.602Z,24.78
2023-05-10T12:19:10.236Z,24.73
2023-05-10T12:21:40.151Z,24.87
2023-05-10T12:24:09.786Z,24.89
2023-05-10T12:26:38.901Z,24.95
2023-05-10T12:29:19.520Z,25.02
2023-05-10T12:31:55.660Z,25.09
2023-05-10T12:34:39.345Z,24.86
2023-05-10T12:37:07.421Z,24.83
2023-05-10T12:39:43.116Z,25.24
2023-05-10T12:42:12.293Z,25.34
2023-05-10T12:44:42.423Z,25.25
2023-05-10T12:47:11.941Z,25.06
2023-05-10T12:49:40.521Z,25.05
2023-05-10T12:52:11.125Z,25.17
2023-05-10T12:54:39.394Z,25.20
2023-05-10T12:57:07.543Z,25.20
2023-05-10T12:59:37.948Z,25.16
2023-05-10T13:02:08.969Z,25.11
2023-05-10T13:04:38.652Z,25.35
2023-05-10T13:07:07.459Z,25.37
2023-05-10T13:09:35.864Z,25.30
2023-05-10T13:12:10.014Z,25.30
2023-05-10T13:14:38.795Z,25.25
2023-05-10T13:17:08.931Z,25.14
2023-05-10T13:19:37.495Z,25.01
2023-05-10T13:22:05.905Z,25.17
2023-05-10T13:24:34.738Z,25.02
2023-05-10T13:27:05.850Z,25.26
2023-05-10T13:29:34.284Z,25.15
2023-05-10T13:32:03.369Z,25.17
2023-05-10T13:34:33.440Z,25.18
2023-05-10T13:37:04.005Z,25.31
2023-05-10T13:39:35.502Z,25.15
2023-05-10T13:42:06.895Z,24.72
2023-05-10T13:44:35.309Z,24.99
2023-05-10T13:47:03.702Z,25.15
2023-05-10T13:49:33.742Z,25.18
2023-05-10T13:52:07.057Z,25.34
2023-05-10T13:54:38.229Z,25.26
2023-05-10T13:57:07.697Z,25.20
2023-05-10T13:59:36.058Z,25.39
2023-05-10T14:02:05.328Z,25.49
2023-05-10T14:04:37.999Z,25.49
2023-05-10T14:07:06.423Z,25.52
2023-05-10T14:09:37.824Z,25.47
2023-05-10T14:12:07.245Z,25.31
2023-05-10T14:14:37.811Z,25.58
2023-05-10T14:17:10.722Z,25.55
2023-05-10T14:19:42.776Z,25.22
2023-05-10T14:22:11.127Z,25.43
2023-05-10T14:24:41.356Z,25.35
2023-05-10T14:27:11.154Z,25.31
2023-05-10T14:29:40.188Z,25.02
2023-05-10T14:32:08.879Z,24.83
2023-05-10T14:34:41.978Z,24.91
2023-05-10T14:37:13.036Z,24.98
2023-05-10T14:39:41.636Z,25.00
2023-05-10T14:42:10.129Z,25.05
2023-05-10T14:44:38.615Z,24.97
2023-05-10T14:47:07.478Z,25.19
2023-05-10T14:49:39.756Z,25.40
2023-05-10T14:52:09.631Z,25.53
2023-05-10T14:54:40.696Z,25.42
2023-05-10T14:57:12.659Z,25.48
2023-05-10T14:59:41.481Z,25.29
2023-05-10T15:02:11.516Z,25.21
2023-05-10T15:04:40.188Z,25.32
2023-05-10T15:07:10.379Z,25.42
2023-05-10T15:09:38.741Z,25.39
2023-05-10T15:12:07.215Z,25.29
2023-05-10T15:14:37.446Z,25.37
2023-05-10T15:17:05.606Z,25.13
2023-05-10T15:19:34.584Z,24.90
2023-05-10T15:22:02.925Z,24.92
2023-05-10T15:24:33.275Z,24.68
2023-05-10T15:27:02.551Z,24.65
2023-05-10T15:29:35.453Z,24.51
2023-05-10T15:32:04.954Z,24.82
2023-05-10T15:34:35.127Z,24.71
2023-05-10T15:37:05.312Z,24.56
2023-05-10T15:39:35.085Z,24.43
2023-05-10T15:42:04.280Z,24.60
2023-05-10T15:44:36.399Z,24.70
2023-05-10T15:47:05.459Z,24.65
2023-05-10T15:49:33.809Z,24.63
2023-05-10T15:52:06.721Z,24.45
2023-05-10T15:54:36.896Z,24.44
2023-05-10T15:57:05.254Z,24.41
2023-05-10T15:59:35.965Z,24.28
2023-05-10T16:02:05.037Z,24.43
2023-05-10T16:04:36.080Z,24.35
2023-05-10T16:07:04.551Z,24.33
2023-05-10T16:09:33.548Z,24.40
2023-05-10T16:12:05.278Z,24.58
2023-05-10T16:14:36.429Z,24.54
2023-05-10T16:17:05.448Z,24.39
2023-05-10T16:19:36.747Z,24.14
2023-05-10T16:22:05.633Z,24.28
2023-05-10T16:24:37.641Z,24.19
2023-05-10T16:27:07.505Z,23.97
2023-05-10T16:29:35.774Z,24.08
2023-05-10T16:32:07.338Z,23.77
2023-05-10T16:34:35.816Z,23.81
2023-05-10T16:37:06.762Z,23.63
2023-05-10T16:39:38.352Z,23.61
2023-05-10T16:42:08.371Z,23.60
2023-05-10T16:44:36.505Z,23.36
2023-05-10T16:47:07.833Z,23.56
2023-05-10T16:49:37.432Z,23.54
2023-05-10T16:52:09.041Z,23.65
2023-05-10T16:54:37.231Z,23.27
2023-05-10T16:57:10.023Z,23.50
2023-05-10T16:59:38.416Z,23.50
2023-05-10T17:02:06.770Z,23.60
2023-05-10T17:04:35.245Z,23.66
2023-05-10T17:07:03.799Z,23.60
2023-05-10T17:09:36.307Z,23.36
2023-05-10T17:12:05.152Z,23.36
2023-05-10T17:14:38.270Z,23.32
2023-05-10T17:17:09.389Z,23.23
2023-05-10T17:19:37.663Z,23.22
2023-05-10T17:22:08.401Z,23.09
2023-05-10T17:24:36.785Z,22.98
2023-05-10T17:27:05.813Z,22.85
2023-05-10T17:29:35.534Z,22.79
2023-05-10T17:32:04.377Z,23.01
2023-05-10T17:34:32.786Z,22.91
2023-05-10T17:39:54.085Z,22.89
2023-05-10T17:42:22.325Z,22.70
2023-05-10T17:44:52.020Z,22.72
2023-05-10T17:47:20.956Z,22.58
2023-05-10T17:49:50.233Z,22.52
2023-05-10T17:52:21.543Z,22.72
2023-05-10T17:54:49.829Z,22.33
2023-05-10T17:57:18.653Z,22.39
2023-05-10T17:59:54.014Z,22.51
2023-05-10T18:02:23.707Z,22.49
2023-05-10T18:04:52.031Z,22.50
2023-05-10T18:07:24.000Z,22.54
2023-05-10T18:09:52.549Z,22.59
2023-05-10T18:12:21.008Z,22.41
2023-05-10T18:14:49.232Z,22.43
2023-05-10T18:17:20.497Z,22.34
2023-05-10T18:19:49.404Z,22.34
2023-05-10T18:22:17.754Z,22.29
2023-05-10T18:24:47.157Z,22.31
2023-05-10T18:27:15.604Z,22.30
2023-05-10T18:29:43.865Z,22.30
2023-05-10T18:32:12.729Z,22.09
2023-05-10T18:34:42.487Z,22.18
2023-05-10T18:37:13.912Z,22.08
2023-05-10T18:39:43.009Z,21.92
2023-05-10T18:42:11.310Z,22.01
2023-05-10T18:44:39.831Z,21.97
2023-05-10T18:47:08.418Z,22.09
2023-05-10T18:49:36.753Z,21.92
2023-05-10T18:52:06.543Z,21.87
2023-05-10T18:54:38.181Z,21.68
2023-05-10T18:57:06.457Z,21.63
2023-05-10T18:59:35.242Z,21.87
2023-05-10T19:02:06.605Z,21.72
2023-05-10T19:04:35.111Z,21.69
2023-05-10T19:07:08.104Z,21.63
2023-05-10T19:09:36.803Z,21.67
2023-05-10T19:12:05.178Z,21.68
2023-05-10T19:14:36.410Z,21.67
2023-05-10T19:17:06.292Z,21.55
2023-05-10T19:19:36.703Z,21.48
2023-05-10T19:22:05.124Z,21.54
2023-05-10T19:24:36.392Z,21.32
2023-05-10T19:27:06.821Z,21.48
2023-05-10T19:29:35.301Z,21.50
2023-05-10T19:32:05.964Z,20.95
2023-05-10T19:34:34.456Z,21.17
2023-05-10T19:37:05.047Z,21.19
2023-05-10T19:39:37.378Z,21.11
2023-05-10T19:42:09.793Z,20.99
2023-05-10T19:44:38.262Z,20.96
2023-05-10T19:47:08.008Z,21.01
2023-05-10T19:49:37.620Z,21.01
2023-05-10T19:52:08.044Z,20.73
2023-05-10T19:54:38.655Z,20.88
2023-05-10T19:57:07.003Z,20.78
2023-05-10T19:59:35.608Z,20.71
2023-05-10T20:02:06.062Z,20.56
2023-05-10T20:04:36.354Z,20.57
2023-05-10T20:07:04.999Z,20.69
2023-05-10T20:09:34.808Z,20.61
2023-05-10T20:12:06.605Z,20.42
2023-05-10T20:14:35.137Z,20.42
2023-05-10T20:17:03.385Z,20.48
2023-05-10T20:19:33.718Z,20.49
2023-05-10T20:22:02.789Z,20.47
2023-05-10T20:24:31.355Z,20.46
2023-05-10T20:27:00.912Z,20.43
2023-05-10T20:29:32.623Z,20.42
2023-05-10T20:32:03.315Z,20.30
2023-05-10T20:34:34.564Z,20.28
2023-05-10T20:37:03.169Z,20.14
2023-05-10T20:39:31.305Z,20.14
2023-05-10T20:42:00.382Z,20.06
2023-05-10T20:44:28.745Z,20.02
2023-05-10T20:47:08.270Z,20.17
2023-05-10T20:49:38.613Z,20.12
2023-05-10T20:52:09.884Z,20.11
2023-05-10T20:54:41.291Z,20.11
2023-05-10T20:57:13.151Z,19.95
2023-05-10T20:59:41.767Z,19.82
2023-05-10T21:02:11.355Z,19.83
2023-05-10T21:04:40.967Z,19.81
2023-05-10T21:07:09.445Z,19.79
2023-05-10T21:09:37.670Z,19.72
2023-05-10T21:12:06.222Z,19.66
2023-05-10T21:14:35.299Z,19.69
2023-05-10T21:17:03.577Z,19.51
2023-05-10T21:19:33.993Z,19.41
2023-05-10T21:22:03.613Z,19.49
2023-05-10T21:24:35.227Z,19.45
2023-05-10T21:27:03.795Z,19.43
2023-05-10T21:29:32.492Z,19.43
2023-05-10T21:32:01.508Z,19.37
2023-05-10T21:34:32.049Z,19.42
2023-05-10T21:37:02.791Z,19.27
2023-05-10T21:39:31.400Z,19.34
2023-05-10T21:42:02.984Z,19.26
2023-05-10T21:44:31.880Z,19.05
2023-05-10T21:47:02.597Z,19.04
2023-05-10T21:49:30.895Z,19.05
2023-05-10T21:51:59.709Z,19.10
2023-05-10T21:54:31.670Z,18.98
2023-05-10T21:57:00.012Z,18.96
2023-05-10T21:59:28.266Z,18.79
2023-05-10T22:01:56.413Z,18.68
2023-05-10T22:04:24.758Z,18.66
2023-05-10T22:06:55.085Z,18.67
2023-05-10T22:09:24.613Z,18.69
2023-05-10T22:11:54.796Z,18.58
2023-05-10T22:14:24.440Z,18.72
2023-05-10T22:16:52.690Z,18.57
2023-05-10T22:19:21.400Z,18.50
2023-05-10T22:21:49.648Z,18.54
2023-05-10T22:24:17.860Z,18.44
2023-05-10T22:26:46.175Z,18.49
2023-05-10T22:29:18.298Z,18.44
2023-05-10T22:31:46.587Z,18.29
2023-05-10T22:34:15.359Z,18.34
2023-05-10T22:36:44.673Z,18.38
2023-05-10T22:39:13.758Z,18.33
2023-05-10T22:41:42.233Z,18.28
2023-05-10T22:44:10.344Z,18.40
2023-05-10T22:46:40.142Z,18.36
2023-05-10T22:49:08.399Z,18.31
2023-05-10T22:51:39.337Z,18.33
2023-05-10T22:54:08.427Z,18.31
2023-05-10T22:56:37.262Z,18.28
2023-05-10T22:59:06.027Z,18.29
2023-05-10T23:01:35.254Z,18.10
2023-05-10T23:04:05.252Z,18.22
2023-05-10T23:06:34.012Z,18.30
2023-05-10T23:09:02.649Z,18.29
2023-05-10T23:11:31.109Z,18.33
2023-05-10T23:14:01.201Z,18.24
2023-05-10T23:16:29.821Z,18.11
2023-05-10T23:19:04.307Z,18.22
2023-05-10T23:21:34.675Z,18.22
2023-05-10T23:24:02.940Z,18.15
2023-05-10T23:26:31.274Z,18.00
2023-05-10T23:29:02.874Z,18.09
2023-05-10T23:31:31.936Z,18.11
2023-05-10T23:34:00.408Z,18.15
2023-05-10T23:36:28.753Z,18.17
2023-05-10T23:38:58.702Z,18.10
2023-05-10T23:41:26.798Z,18.14
2023-05-10T23:43:55.694Z,18.00
2023-05-10T23:46:24.157Z,17.94
2023-05-10T23:48:52.435Z,17.94
2023-05-10T23:51:21.391Z,18.02
2023-05-10T23:53:49.721Z,17.85
2023-05-10T23:56:19.799Z,17.95
2023-05-10T23:58:51.314Z,17.90
